createdAt,value
2018-09-26T00:00:01.012Z,7.33
2018-09-26T00:02:17.707Z,7.29
2018-09-26T00:04:30.611Z,7.29
2018-09-26T00:06:42.951Z,7.26
2018-09-26T00:08:55.127Z,7.28
2018-09-26T00:11:07.482Z,7.32
2018-09-26T00:13:19.673Z,7.33
2018-09-26T00:15:31.881Z,7.24
2018-09-26T00:17:44.145Z,7.16
2018-09-26T00:19:56.315Z,7.08
2018-09-26T00:22:08.567Z,7.08
2018-09-26T00:24:20.778Z,7.10
2018-09-26T00:26:33.070Z,7.11
2018-09-26T00:28:45.270Z,7.01
2018-09-26T00:30:57.478Z,6.92
2018-09-26T00:33:09.763Z,6.65
2018-09-26T00:35:21.947Z,6.40
2018-09-26T00:37:34.248Z,6.24
2018-09-26T00:39:46.419Z,6.16
2018-09-26T00:41:58.644Z,6.10
2018-09-26T00:44:11.004Z,5.99
2018-09-26T00:46:23.258Z,5.91
2018-09-26T00:48:35.567Z,5.89
2018-09-26T00:50:47.758Z,5.81
2018-09-26T00:52:59.978Z,5.78
2018-09-26T00:55:12.277Z,5.73
2018-09-26T00:57:24.486Z,5.68
2018-09-26T00:59:36.672Z,5.60
2018-09-26T01:01:48.870Z,5.56
2018-09-26T01:04:01.197Z,5.56
2018-09-26T01:06:13.462Z,5.54
2018-09-26T01:08:25.686Z,5.53
2018-09-26T01:10:37.943Z,5.55
2018-09-26T01:12:50.174Z,5.55
2018-09-26T01:15:02.406Z,5.53
2018-09-26T01:17:14.833Z,5.52
2018-09-26T01:19:27.052Z,5.54
2018-09-26T01:21:39.275Z,5.48
2018-09-26T01:23:51.434Z,5.39
2018-09-26T01:26:03.770Z,5.28
2018-09-26T01:28:15.956Z,5.20
2018-09-26T01:30:28.238Z,5.19
2018-09-26T01:32:40.430Z,5.17
2018-09-26T01:34:52.642Z,5.17
2018-09-26T01:37:04.903Z,5.11
2018-09-26T01:39:17.071Z,5.07
2018-09-26T01:41:29.398Z,5.04
2018-09-26T01:43:41.563Z,5.04
2018-09-26T01:45:53.805Z,5.03
2018-09-26T01:48:06.037Z,5.01
2018-09-26T01:50:18.264Z,4.98
2018-09-26T01:52:30.457Z,4.97
2018-09-26T01:54:42.642Z,4.89
2018-09-26T01:56:54.895Z,4.83
2018-09-26T01:59:07.109Z,4.77
2018-09-26T02:01:19.323Z,4.74
2018-09-26T02:03:31.663Z,4.79
2018-09-26T02:05:43.891Z,4.79
2018-09-26T02:07:56.145Z,4.67
2018-09-26T02:10:08.351Z,4.61
2018-09-26T02:12:20.565Z,4.59
2018-09-26T02:14:32.749Z,4.52
2018-09-26T02:16:44.966Z,4.46
2018-09-26T02:18:57.138Z,4.44
2018-09-26T02:21:09.346Z,4.49
2018-09-26T02:23:21.564Z,4.54
2018-09-26T02:25:33.762Z,4.58
2018-09-26T02:27:46.017Z,4.61
2018-09-26T02:29:58.231Z,4.63
2018-09-26T02:32:10.472Z,4.62
2018-09-26T02:34:22.676Z,4.56
2018-09-26T02:36:34.897Z,4.48
2018-09-26T02:38:47.121Z,4.37
2018-09-26T02:40:59.355Z,4.39
2018-09-26T02:43:11.591Z,4.33
2018-09-26T02:45:23.846Z,4.27
2018-09-26T02:47:36.050Z,4.22
2018-09-26T02:49:48.266Z,4.16
2018-09-26T02:52:00.467Z,4.08
2018-09-26T02:54:12.708Z,4.05
2018-09-26T02:56:25.007Z,4.13
2018-09-26T02:58:37.208Z,4.18
2018-09-26T03:00:49.417Z,4.18
2018-09-26T03:03:01.636Z,4.14
2018-09-26T03:05:13.863Z,4.04
2018-09-26T03:07:26.068Z,3.91
2018-09-26T03:09:38.258Z,3.86
2018-09-26T03:11:50.467Z,3.80
2018-09-26T03:14:02.686Z,3.81
2018-09-26T03:16:14.920Z,3.82
2018-09-26T03:18:27.151Z,3.81
2018-09-26T03:20:39.383Z,3.86
2018-09-26T03:22:51.582Z,3.86
2018-09-26T03:25:03.815Z,3.81
2018-09-26T03:27:16.047Z,3.74
2018-09-26T03:29:28.274Z,3.76
2018-09-26T03:31:40.531Z,3.81
2018-09-26T03:33:52.937Z,3.81
2018-09-26T03:36:05.073Z,3.84
2018-09-26T03:38:17.334Z,3.86
2018-09-26T03:40:29.595Z,3.85
2018-09-26T03:42:41.866Z,3.83
2018-09-26T03:44:54.134Z,3.79
2018-09-26T03:47:06.374Z,3.77
2018-09-26T03:49:18.573Z,3.73
2018-09-26T03:51:30.799Z,3.67
2018-09-26T03:53:43.023Z,3.63
2018-09-26T03:55:55.222Z,3.59
2018-09-26T03:58:07.459Z,3.61
2018-09-26T04:00:19.692Z,3.52
2018-09-26T04:02:31.897Z,3.49
2018-09-26T04:04:44.115Z,3.47
2018-09-26T04:06:56.330Z,3.46
2018-09-26T04:09:08.942Z,3.45
2018-09-26T04:11:21.118Z,3.41
2018-09-26T04:13:33.329Z,3.41
2018-09-26T04:15:50.887Z,3.40
2018-09-26T04:18:03.118Z,3.40
2018-09-26T04:20:15.413Z,3.42
2018-09-26T04:22:27.599Z,3.47
2018-09-26T04:24:39.815Z,3.45
2018-09-26T04:26:52.302Z,3.43
2018-09-26T04:29:04.364Z,3.43
2018-09-26T04:31:16.591Z,3.44
2018-09-26T04:33:28.863Z,3.48
2018-09-26T04:35:41.060Z,3.51
2018-09-26T04:37:53.266Z,3.47
2018-09-26T04:40:05.558Z,3.43
2018-09-26T04:42:17.796Z,3.32
2018-09-26T04:44:30.023Z,3.26
2018-09-26T04:46:42.245Z,3.22
2018-09-26T04:48:54.549Z,3.24
2018-09-26T04:51:06.763Z,3.23
2018-09-26T04:53:19.035Z,3.22
2018-09-26T04:55:31.280Z,3.22
2018-09-26T04:57:43.932Z,3.21
2018-09-26T04:59:56.118Z,3.22
2018-09-26T05:02:08.318Z,3.20
2018-09-26T05:04:20.560Z,3.17
2018-09-26T05:06:32.772Z,3.18
2018-09-26T05:08:44.994Z,3.17
2018-09-26T05:10:57.252Z,3.10
2018-09-26T05:13:09.468Z,3.32
2018-09-26T05:15:21.719Z,3.38
2018-09-26T05:17:33.965Z,3.38
2018-09-26T05:19:46.223Z,3.37
2018-09-26T05:21:58.426Z,3.30
2018-09-26T05:24:10.628Z,3.23
2018-09-26T05:26:22.883Z,3.16
2018-09-26T05:28:35.170Z,3.19
2018-09-26T05:30:47.402Z,3.08
2018-09-26T05:32:59.598Z,3.02
2018-09-26T05:35:11.781Z,3.01
2018-09-26T05:37:23.983Z,3.00
2018-09-26T05:39:36.174Z,3.07
2018-09-26T05:41:48.511Z,3.20
2018-09-26T05:44:00.678Z,3.24
2018-09-26T05:46:12.901Z,3.37
2018-09-26T05:48:25.151Z,3.44
2018-09-26T05:50:37.409Z,3.52
2018-09-26T05:52:49.606Z,3.59
2018-09-26T05:55:01.855Z,3.66
2018-09-26T05:57:14.124Z,3.69
2018-09-26T05:59:26.425Z,3.69
2018-09-26T06:01:38.572Z,3.73
2018-09-26T06:03:50.862Z,3.79
2018-09-26T06:06:03.088Z,3.88
2018-09-26T06:08:15.327Z,3.95
2018-09-26T06:10:27.561Z,4.00
2018-09-26T06:12:39.831Z,4.06
2018-09-26T06:14:52.079Z,4.14
2018-09-26T06:17:04.431Z,4.22
2018-09-26T06:19:16.703Z,4.33
2018-09-26T06:21:28.927Z,4.42
2018-09-26T06:23:41.133Z,4.54
2018-09-26T06:25:53.319Z,4.71
2018-09-26T06:28:05.589Z,4.91
2018-09-26T06:30:17.796Z,5.07
2018-09-26T06:32:30.014Z,5.31
2018-09-26T06:34:42.267Z,5.55
2018-09-26T06:36:54.496Z,5.85
2018-09-26T06:39:09.049Z,6.22
2018-09-26T06:41:21.271Z,6.66
2018-09-26T06:43:33.478Z,7.08
2018-09-26T06:45:45.666Z,7.52
2018-09-26T06:47:57.862Z,7.90
2018-09-26T06:50:10.070Z,8.30
2018-09-26T06:52:22.306Z,8.74
2018-09-26T06:54:34.546Z,9.16
2018-09-26T06:56:46.748Z,9.53
2018-09-26T06:58:58.988Z,9.80
2018-09-26T07:01:11.170Z,10.02
2018-09-26T07:03:23.438Z,10.26
2018-09-26T07:05:35.712Z,10.59
2018-09-26T07:07:47.934Z,10.92
2018-09-26T07:10:00.171Z,11.24
2018-09-26T07:12:12.366Z,11.50
2018-09-26T07:14:24.622Z,11.70
2018-09-26T07:16:36.826Z,11.78
2018-09-26T07:18:49.054Z,12.02
2018-09-26T07:21:01.296Z,12.17
2018-09-26T07:23:13.511Z,12.35
2018-09-26T07:25:25.724Z,12.47
2018-09-26T07:27:37.943Z,12.41
2018-09-26T07:29:50.139Z,12.61
2018-09-26T07:32:02.368Z,12.77
2018-09-26T07:34:14.606Z,13.06
2018-09-26T07:36:26.894Z,13.33
2018-09-26T07:38:39.236Z,13.63
2018-09-26T07:40:51.499Z,13.85
2018-09-26T07:43:03.735Z,14.06
2018-09-26T07:45:15.929Z,14.22
2018-09-26T07:47:28.175Z,14.37
2018-09-26T07:49:40.366Z,14.49
2018-09-26T07:51:52.698Z,14.64
2018-09-26T07:54:04.926Z,14.86
2018-09-26T07:56:17.185Z,14.94
2018-09-26T07:58:29.461Z,15.02
2018-09-26T08:00:41.692Z,15.11
2018-09-26T08:02:53.926Z,15.05
2018-09-26T08:05:06.239Z,15.03
2018-09-26T08:07:18.495Z,14.98
2018-09-26T08:09:30.752Z,15.13
2018-09-26T08:11:43.017Z,15.33
2018-09-26T08:13:55.186Z,15.39
2018-09-26T08:16:07.677Z,15.49
2018-09-26T08:18:20.035Z,15.66
2018-09-26T08:20:32.191Z,15.75
2018-09-26T08:22:44.407Z,15.77
2018-09-26T08:24:56.668Z,15.87
2018-09-26T08:27:08.902Z,15.82
2018-09-26T08:29:21.198Z,15.73
2018-09-26T08:31:33.442Z,15.87
2018-09-26T08:33:45.678Z,16.01
2018-09-26T08:35:57.895Z,16.23
2018-09-26T08:38:10.107Z,16.38
2018-09-26T08:40:22.775Z,16.49
2018-09-26T08:42:35.044Z,16.47
2018-09-26T08:44:47.320Z,16.48
2018-09-26T08:46:59.578Z,16.61
2018-09-26T08:49:11.881Z,16.66
2018-09-26T08:51:24.142Z,16.73
2018-09-26T08:53:36.445Z,16.80
2018-09-26T08:55:48.684Z,16.87
2018-09-26T08:58:00.904Z,16.84
2018-09-26T09:00:13.195Z,16.95
2018-09-26T09:02:34.154Z,17.05
2018-09-26T09:04:46.391Z,17.14
2018-09-26T09:06:58.663Z,17.12
2018-09-26T09:09:10.908Z,17.25
2018-09-26T09:11:23.214Z,17.38
2018-09-26T09:13:35.423Z,17.54
2018-09-26T09:15:47.690Z,17.65
2018-09-26T09:17:59.916Z,17.79
2018-09-26T09:20:12.531Z,17.93
2018-09-26T09:22:24.675Z,17.98
2018-09-26T09:24:36.879Z,17.97
2018-09-26T09:26:49.184Z,17.93
2018-09-26T09:29:01.380Z,17.94
2018-09-26T09:31:13.587Z,17.95
2018-09-26T09:33:25.779Z,17.87
2018-09-26T09:35:38.010Z,17.70
2018-09-26T09:37:50.638Z,17.74
2018-09-26T09:40:02.927Z,17.65
2018-09-26T09:42:15.161Z,17.77
2018-09-26T09:44:27.363Z,17.90
2018-09-26T09:46:39.553Z,17.84
2018-09-26T09:48:51.772Z,17.82
2018-09-26T09:51:04.103Z,17.98
2018-09-26T09:53:19.128Z,18.16
2018-09-26T09:55:31.329Z,18.31
2018-09-26T09:57:43.556Z,18.50
2018-09-26T09:59:55.747Z,18.59
2018-09-26T10:02:08.037Z,18.47
2018-09-26T10:04:20.214Z,18.39
2018-09-26T10:06:32.431Z,18.32
2018-09-26T10:08:44.704Z,18.27
2018-09-26T10:10:56.897Z,18.25
2018-09-26T10:13:09.139Z,18.43
2018-09-26T10:15:21.336Z,18.52
2018-09-26T10:17:33.625Z,18.57
2018-09-26T10:19:45.807Z,18.59
2018-09-26T10:21:57.974Z,18.66
2018-09-26T10:24:10.130Z,18.59
2018-09-26T10:26:22.389Z,18.59
2018-09-26T10:28:34.528Z,18.59
2018-09-26T10:30:46.772Z,18.53
2018-09-26T10:32:58.932Z,18.41
2018-09-26T10:35:11.171Z,18.35
2018-09-26T10:37:23.367Z,18.36
2018-09-26T10:39:35.526Z,18.42
2018-09-26T10:41:47.722Z,18.48
2018-09-26T10:43:59.943Z,18.61
2018-09-26T10:46:12.068Z,18.71
2018-09-26T10:48:24.231Z,18.64
2018-09-26T10:50:36.435Z,18.52
2018-09-26T10:52:48.554Z,18.58
2018-09-26T10:55:00.732Z,18.70
2018-09-26T10:57:12.925Z,18.79
2018-09-26T10:59:25.063Z,18.81
2018-09-26T11:01:37.226Z,18.80
2018-09-26T11:03:49.424Z,18.94
2018-09-26T11:06:01.653Z,19.09
2018-09-26T11:08:13.831Z,19.15
2018-09-26T11:10:26.064Z,19.18
2018-09-26T11:12:38.183Z,19.22
2018-09-26T11:14:50.348Z,19.27
2018-09-26T11:17:02.515Z,19.33
2018-09-26T11:19:14.703Z,19.38
2018-09-26T11:21:26.853Z,19.44
2018-09-26T11:23:39.044Z,19.40
2018-09-26T11:25:51.199Z,19.36
2018-09-26T11:28:03.408Z,19.18
2018-09-26T11:30:15.642Z,19.17
2018-09-26T11:32:27.827Z,19.17
2018-09-26T11:34:39.976Z,19.14
2018-09-26T11:36:52.143Z,19.14
2018-09-26T11:39:06.703Z,19.19
2018-09-26T11:41:18.911Z,19.26
2018-09-26T11:43:31.083Z,19.28
2018-09-26T11:45:43.266Z,19.29
2018-09-26T11:47:55.448Z,19.23
2018-09-26T11:50:07.675Z,19.29
2018-09-26T11:52:19.912Z,19.38
2018-09-26T11:54:32.023Z,19.42
2018-09-26T11:56:44.216Z,19.46
2018-09-26T11:58:56.355Z,19.53
2018-09-26T12:01:08.568Z,19.57
2018-09-26T12:03:20.736Z,19.55
2018-09-26T12:05:32.932Z,19.50
2018-09-26T12:07:45.140Z,19.48
2018-09-26T12:09:57.310Z,19.47
2018-09-26T12:12:09.556Z,19.48
2018-09-26T12:14:21.682Z,19.45
2018-09-26T12:16:33.875Z,19.44
2018-09-26T12:18:46.235Z,19.46
2018-09-26T12:20:58.499Z,19.42
2018-09-26T12:23:10.676Z,19.46
2018-09-26T12:25:23.144Z,19.46
2018-09-26T12:27:35.245Z,19.50
2018-09-26T12:29:47.435Z,19.44
2018-09-26T12:31:59.630Z,19.37
2018-09-26T12:34:11.795Z,19.37
2018-09-26T12:36:24.001Z,19.36
2018-09-26T12:38:36.109Z,19.27
2018-09-26T12:40:48.266Z,19.25
2018-09-26T12:43:00.505Z,19.24
2018-09-26T12:45:12.701Z,19.21
2018-09-26T12:47:24.942Z,19.24
2018-09-26T12:49:37.024Z,19.25
2018-09-26T12:51:49.154Z,19.29
2018-09-26T12:54:01.568Z,19.30
2018-09-26T12:56:13.503Z,19.31
2018-09-26T12:58:25.753Z,19.34
2018-09-26T13:00:37.884Z,19.35
2018-09-26T13:02:50.127Z,19.35
2018-09-26T13:05:02.369Z,19.37
2018-09-26T13:07:14.570Z,19.41
2018-09-26T13:09:26.766Z,19.46
2018-09-26T13:11:38.952Z,19.48
2018-09-26T13:13:51.115Z,19.48
2018-09-26T13:16:03.292Z,19.45
2018-09-26T13:18:15.524Z,19.45
2018-09-26T13:20:27.801Z,19.47
2018-09-26T13:22:40.095Z,19.48
2018-09-26T13:24:52.288Z,19.46
2018-09-26T13:27:04.446Z,19.45
2018-09-26T13:29:16.583Z,19.43
2018-09-26T13:31:28.800Z,19.41
2018-09-26T13:33:40.956Z,19.42
2018-09-26T13:35:53.120Z,19.42
2018-09-26T13:38:05.330Z,19.42
2018-09-26T13:40:17.570Z,19.44
2018-09-26T13:42:29.700Z,19.47
2018-09-26T13:44:41.854Z,19.47
2018-09-26T13:46:54.081Z,19.49
2018-09-26T13:49:06.170Z,19.49
2018-09-26T13:51:18.383Z,19.51
2018-09-26T13:53:30.580Z,19.51
2018-09-26T13:55:42.693Z,19.53
2018-09-26T13:57:54.851Z,19.57
2018-09-26T14:00:07.090Z,19.59
2018-09-26T14:02:19.371Z,19.57
2018-09-26T14:04:31.493Z,19.57
2018-09-26T14:06:43.700Z,19.60
2018-09-26T14:08:55.877Z,19.60
2018-09-26T14:11:08.046Z,19.60
2018-09-26T14:13:20.207Z,19.63
2018-09-26T14:15:32.452Z,19.60
2018-09-26T14:17:44.655Z,19.57
2018-09-26T14:19:56.827Z,19.59
2018-09-26T14:22:09.029Z,19.61
2018-09-26T14:24:21.153Z,19.63
2018-09-26T14:26:33.410Z,19.66
2018-09-26T14:28:45.602Z,19.67
2018-09-26T14:30:57.784Z,19.61
2018-09-26T14:33:09.962Z,19.60
2018-09-26T14:35:22.204Z,19.60
2018-09-26T14:37:34.385Z,19.60
2018-09-26T14:39:46.608Z,19.59
2018-09-26T14:41:58.784Z,19.58
2018-09-26T14:44:10.957Z,19.56
2018-09-26T14:46:23.118Z,19.54
2018-09-26T14:48:35.340Z,19.55
2018-09-26T14:50:47.558Z,19.50
2018-09-26T14:52:59.744Z,19.47
2018-09-26T14:55:11.965Z,19.45
2018-09-26T14:57:24.207Z,19.43
2018-09-26T14:59:36.317Z,19.37
2018-09-26T15:01:48.456Z,19.33
2018-09-26T15:04:00.663Z,19.26
2018-09-26T15:06:12.882Z,19.22
2018-09-26T15:08:29.570Z,19.20
2018-09-26T15:10:41.732Z,19.22
2018-09-26T15:12:53.927Z,19.21
2018-09-26T15:15:06.451Z,19.21
2018-09-26T15:17:18.624Z,19.18
2018-09-26T15:19:30.855Z,19.23
2018-09-26T15:21:43.034Z,19.28
2018-09-26T15:23:55.252Z,19.31
2018-09-26T15:26:07.493Z,19.40
2018-09-26T15:28:19.668Z,19.37
2018-09-26T15:30:31.871Z,19.28
2018-09-26T15:32:44.032Z,19.19
2018-09-26T15:34:56.231Z,19.10
2018-09-26T15:37:08.383Z,19.06
2018-09-26T15:39:20.620Z,19.01
2018-09-26T15:41:32.814Z,18.96
2018-09-26T15:43:44.970Z,18.92
2018-09-26T15:45:57.152Z,18.83
2018-09-26T15:48:09.471Z,18.78
2018-09-26T15:50:21.792Z,18.71
2018-09-26T15:52:39.459Z,18.65
2018-09-26T15:54:51.667Z,18.56
2018-09-26T15:57:03.866Z,18.53
2018-09-26T15:59:16.139Z,18.45
2018-09-26T16:01:28.374Z,18.41
2018-09-26T16:03:40.507Z,18.37
2018-09-26T16:05:52.750Z,18.31
2018-09-26T16:08:05.015Z,18.23
2018-09-26T16:10:17.228Z,18.21
2018-09-26T16:12:29.375Z,18.18
2018-09-26T16:14:41.538Z,18.08
2018-09-26T16:16:53.744Z,18.05
2018-09-26T16:19:05.972Z,17.97
2018-09-26T16:21:18.245Z,17.93
2018-09-26T16:23:30.418Z,17.91
2018-09-26T16:25:42.594Z,17.92
2018-09-26T16:27:54.784Z,17.93
2018-09-26T16:30:09.089Z,17.92
2018-09-26T16:32:21.326Z,17.90
2018-09-26T16:34:33.438Z,17.87
2018-09-26T16:36:45.683Z,17.85
2018-09-26T16:38:57.859Z,17.83
2018-09-26T16:41:10.108Z,17.77
2018-09-26T16:43:22.288Z,17.75
2018-09-26T16:45:34.512Z,17.66
2018-09-26T16:47:46.702Z,17.59
2018-09-26T16:49:59.048Z,17.54
2018-09-26T16:52:11.266Z,17.52
2018-09-26T16:54:23.482Z,17.50
2018-09-26T16:56:35.743Z,17.47
2018-09-26T16:58:47.982Z,17.44
2018-09-26T17:01:00.204Z,17.38
2018-09-26T17:03:12.408Z,17.26
2018-09-26T17:05:24.608Z,17.13
2018-09-26T17:07:36.827Z,16.95
2018-09-26T17:09:49.040Z,16.83
2018-09-26T17:12:01.185Z,16.68
2018-09-26T17:14:13.454Z,16.58
2018-09-26T17:16:25.686Z,16.50
2018-09-26T17:18:37.865Z,16.34
2018-09-26T17:20:50.064Z,16.28
2018-09-26T17:23:02.248Z,16.17
2018-09-26T17:25:14.402Z,16.08
2018-09-26T17:27:26.604Z,15.92
2018-09-26T17:29:38.842Z,15.83
2018-09-26T17:31:51.042Z,15.80
2018-09-26T17:34:03.269Z,15.79
2018-09-26T17:36:15.487Z,15.82
2018-09-26T17:38:27.656Z,15.83
2018-09-26T17:40:39.858Z,15.82
2018-09-26T17:42:52.080Z,15.82
2018-09-26T17:45:05.051Z,15.76
2018-09-26T17:47:17.282Z,15.73
2018-09-26T17:49:29.561Z,15.60
2018-09-26T17:51:41.751Z,15.52
2018-09-26T17:53:53.976Z,15.45
2018-09-26T17:56:06.380Z,15.39
2018-09-26T17:58:18.602Z,15.28
2018-09-26T18:00:30.775Z,15.16
2018-09-26T18:02:42.931Z,15.01
2018-09-26T18:04:55.151Z,14.91
2018-09-26T18:07:07.352Z,14.85
2018-09-26T18:09:19.571Z,14.84
2018-09-26T18:11:31.768Z,14.76
2018-09-26T18:13:44.022Z,14.69
2018-09-26T18:15:56.226Z,14.66
2018-09-26T18:18:08.480Z,14.63
2018-09-26T18:20:20.737Z,14.58
2018-09-26T18:22:32.927Z,14.55
2018-09-26T18:24:45.173Z,14.50
2018-09-26T18:26:57.395Z,14.41
2018-09-26T18:29:09.579Z,14.35
2018-09-26T18:31:21.830Z,14.30
2018-09-26T18:33:34.114Z,14.28
2018-09-26T18:35:46.408Z,14.23
2018-09-26T18:37:58.642Z,14.11
2018-09-26T18:40:10.893Z,13.99
2018-09-26T18:42:23.107Z,13.95
2018-09-26T18:44:35.355Z,13.89
2018-09-26T18:46:47.628Z,13.80
2018-09-26T18:48:59.923Z,13.69
2018-09-26T18:51:12.360Z,13.54
2018-09-26T18:53:24.603Z,13.41
2018-09-26T18:55:36.835Z,13.40
2018-09-26T18:57:49.104Z,13.37
2018-09-26T19:00:01.283Z,13.29
2018-09-26T19:02:13.540Z,13.28
2018-09-26T19:04:25.868Z,13.18
2018-09-26T19:06:38.043Z,13.20
2018-09-26T19:08:50.380Z,13.17
2018-09-26T19:11:02.549Z,13.18
2018-09-26T19:13:14.805Z,13.11
2018-09-26T19:15:27.036Z,13.05
2018-09-26T19:17:39.233Z,13.01
2018-09-26T19:19:51.399Z,12.94
2018-09-26T19:22:03.653Z,12.92
2018-09-26T19:24:15.899Z,12.89
2018-09-26T19:26:28.171Z,12.80
2018-09-26T19:28:40.429Z,12.78
2018-09-26T19:30:52.668Z,12.81
2018-09-26T19:33:04.980Z,12.80
2018-09-26T19:35:17.260Z,12.68
2018-09-26T19:37:29.562Z,12.53
2018-09-26T19:39:41.843Z,12.38
2018-09-26T19:41:54.134Z,12.27
2018-09-26T19:44:06.386Z,12.21
2018-09-26T19:46:18.608Z,12.19
2018-09-26T19:48:31.164Z,12.19
2018-09-26T19:50:43.354Z,12.13
2018-09-26T19:52:55.614Z,12.06
2018-09-26T19:55:07.870Z,12.01
2018-09-26T19:57:20.110Z,11.93
2018-09-26T19:59:32.378Z,11.91
2018-09-26T20:01:44.801Z,11.81
2018-09-26T20:03:57.090Z,11.85
2018-09-26T20:06:09.343Z,11.91
2018-09-26T20:08:21.561Z,11.85
2018-09-26T20:10:33.770Z,11.81
2018-09-26T20:12:45.948Z,11.75
2018-09-26T20:14:58.178Z,11.73
2018-09-26T20:17:10.372Z,11.65
2018-09-26T20:19:22.672Z,11.60
2018-09-26T20:21:34.872Z,11.56
2018-09-26T20:23:47.166Z,11.45
2018-09-26T20:25:59.362Z,11.43
2018-09-26T20:28:11.527Z,11.41
2018-09-26T20:30:23.778Z,11.43
2018-09-26T20:32:35.969Z,11.41
2018-09-26T20:34:48.224Z,11.37
2018-09-26T20:37:00.469Z,11.37
2018-09-26T20:39:12.703Z,11.35
2018-09-26T20:41:25.744Z,11.29
2018-09-26T20:43:37.990Z,11.30
2018-09-26T20:45:50.155Z,11.31
2018-09-26T20:48:02.349Z,11.26
2018-09-26T20:50:14.589Z,11.17
2018-09-26T20:52:26.765Z,11.08
2018-09-26T20:54:39.015Z,11.07
2018-09-26T20:56:51.238Z,11.02
2018-09-26T20:59:03.503Z,10.99
2018-09-26T21:01:15.684Z,10.95
2018-09-26T21:03:27.866Z,10.93
2018-09-26T21:05:40.587Z,10.94
2018-09-26T21:07:52.811Z,10.86
2018-09-26T21:10:05.037Z,10.77
2018-09-26T21:12:17.183Z,10.78
2018-09-26T21:14:29.421Z,10.79
2018-09-26T21:16:41.603Z,10.76
2018-09-26T21:18:53.804Z,10.70
2018-09-26T21:21:06.120Z,10.63
2018-09-26T21:23:18.309Z,10.57
2018-09-26T21:25:30.494Z,10.53
2018-09-26T21:27:42.637Z,10.44
2018-09-26T21:29:54.870Z,10.38
2018-09-26T21:32:07.042Z,10.35
2018-09-26T21:34:19.205Z,10.31
2018-09-26T21:36:31.415Z,10.27
2018-09-26T21:38:43.644Z,10.21
2018-09-26T21:40:55.822Z,10.15
2018-09-26T21:43:08.002Z,10.09
2018-09-26T21:45:20.170Z,10.04
2018-09-26T21:47:32.375Z,10.00
2018-09-26T21:49:44.658Z,9.96
2018-09-26T21:51:56.853Z,9.90
2018-09-26T21:54:09.092Z,9.89
2018-09-26T21:56:21.235Z,9.87
2018-09-26T21:58:33.415Z,9.91
2018-09-26T22:00:51.347Z,9.88
2018-09-26T22:03:03.767Z,9.81
2018-09-26T22:05:16.117Z,9.72
2018-09-26T22:07:28.434Z,9.62
2018-09-26T22:09:40.728Z,9.59
2018-09-26T22:11:53.073Z,9.61
2018-09-26T22:14:05.415Z,9.62
2018-09-26T22:16:17.802Z,9.58
2018-09-26T22:18:30.103Z,9.60
2018-09-26T22:20:42.420Z,9.58
2018-09-26T22:22:54.750Z,9.56
2018-09-26T22:25:07.092Z,9.53
2018-09-26T22:27:19.373Z,9.46
2018-09-26T22:29:31.742Z,9.39
2018-09-26T22:31:44.056Z,9.33
2018-09-26T22:33:56.375Z,9.26
2018-09-26T22:36:08.660Z,9.15
2018-09-26T22:38:21.007Z,9.09
2018-09-26T22:40:33.311Z,9.01
2018-09-26T22:42:45.667Z,8.95
2018-09-26T22:44:58.012Z,8.94
2018-09-26T22:47:10.326Z,8.99
2018-09-26T22:49:22.661Z,8.99
2018-09-26T22:51:34.975Z,8.95
2018-09-26T22:53:47.302Z,8.91
2018-09-26T22:55:59.651Z,8.88
2018-09-26T22:58:12.052Z,8.93
2018-09-26T23:00:24.334Z,8.96
2018-09-26T23:02:36.635Z,9.01
2018-09-26T23:04:48.964Z,9.04
2018-09-26T23:07:01.311Z,9.05
2018-09-26T23:09:13.607Z,9.03
2018-09-26T23:11:25.982Z,9.01
2018-09-26T23:13:38.291Z,8.99
2018-09-26T23:15:50.619Z,8.89
2018-09-26T23:18:02.920Z,8.84
2018-09-26T23:20:15.243Z,8.81
2018-09-26T23:22:27.664Z,8.75
2018-09-26T23:24:40.017Z,8.66
2018-09-26T23:26:52.322Z,8.60
2018-09-26T23:29:04.654Z,8.56
2018-09-26T23:31:16.939Z,8.54
2018-09-26T23:33:29.250Z,8.55
2018-09-26T23:35:41.552Z,8.48
2018-09-26T23:37:53.828Z,8.43
2018-09-26T23:40:06.174Z,8.39
2018-09-26T23:42:18.442Z,8.41
2018-09-26T23:44:30.781Z,8.45
2018-09-26T23:46:43.048Z,8.43
2018-09-26T23:48:55.348Z,8.39
2018-09-26T23:51:07.663Z,8.29
2018-09-26T23:53:20.015Z,8.20
2018-09-26T23:55:32.299Z,8.16
2018-09-26T23:57:44.665Z,8.22
2018-09-26T23:59:56.967Z,8.27
